Time,TemperatureF,DewpointF,PressureIn,WindDirection,WindDirectionDegrees,WindSpeedMPH,WindSpeedGustMPH,Humidity,HourlyPrecipIn,Conditions,Clouds,dailyrainin,SolarRadiationWatts/m^2,SoftwareType,DateUTC
2013-01-01 00:12:00,56.0,53.0,-100.00,ESE,102,2.0,9.0,91,0.00,,,-99.99,0.000000,,2013-01-01 06:12:00,
2013-01-01 00:22:00,56.0,53.0,-100.00,ESE,102,2.0,9.0,91,0.00,,,-99.99,0.000000,,2013-01-01 06:22:00,
2013-01-01 00:32:00,56.0,53.0,-100.00,ESE,102,2.0,9.0,91,0.00,,,-99.99,0.000000,,2013-01-01 06:32:00,
2013-01-01 00:42:00,56.0,53.0,-100.00,ESE,102,2.0,9.0,91,0.00,,,-99.99,0.000000,,2013-01-01 06:42:00,
2013-01-01 00:51:00,54.0,52.0,-100.00,SSW,192,1.0,4.0,94,0.00,,,-99.99,0.000000,,2013-01-01 06:51:00,
2013-01-01 01:12:00,54.0,52.0,-100.00,SSW,192,1.0,4.0,94,0.00,,,-99.99,0.000000,,2013-01-01 07:12:00,
2013-01-01 01:22:00,54.0,52.0,-100.00,SSW,192,1.0,4.0,94,0.00,,,-99.99,0.000000,,2013-01-01 07:22:00,
2013-01-01 01:32:00,54.0,52.0,-100.00,SSW,192,1.0,4.0,94,0.00,,,-99.99,0.000000,,2013-01-01 07:32:00,
2013-01-01 01:42:00,54.0,52.0,-100.00,SSW,192,1.0,4.0,94,0.00,,,-99.99,0.000000,,2013-01-01 07:42:00,
2013-01-01 01:51:00,53.0,52.0,-100.00,NNE,19,0.0,3.0,96,0.00,,,-99.99,0.000000,,2013-01-01 07:51:00,
2013-01-01 02:12:00,53.0,52.0,-100.00,NNE,19,0.0,3.0,96,0.00,,,-99.99,0.000000,,2013-01-01 08:12:00,
2013-01-01 02:22:00,53.0,52.0,-100.00,NNE,19,0.0,3.0,96,0.00,,,-99.99,0.000000,,2013-01-01 08:22:00,
2013-01-01 02:32:00,53.0,52.0,-100.00,NNE,19,0.0,3.0,96,0.00,,,-99.99,0.000000,,2013-01-01 08:32:00,
2013-01-01 02:42:00,53.0,52.0,-100.00,NNE,19,0.0,3.0,96,0.00,,,-99.99,0.000000,,2013-01-01 08:42:00,
2013-01-01 02:51:00,53.0,52.0,-100.00,South,169,2.0,3.0,96,0.00,,,-99.99,0.000000,,2013-01-01 08:51:00,
2013-01-01 03:12:00,53.0,52.0,-100.00,South,169,2.0,3.0,96,0.00,,,-99.99,0.000000,,2013-01-01 09:12:00,
2013-01-01 03:22:00,53.0,52.0,-100.00,South,169,2.0,3.0,96,0.00,,,-99.99,0.000000,,2013-01-01 09:22:00,
2013-01-01 03:32:00,53.0,52.0,-100.00,South,169,2.0,3.0,96,0.00,,,-99.99,0.000000,,2013-01-01 09:32:00,
2013-01-01 03:42:00,53.0,52.0,-100.00,South,169,2.0,3.0,96,0.00,,,-99.99,0.000000,,2013-01-01 09:42:00,
2013-01-01 03:51:00,64.0,63.0,-100.00,South,169,7.0,12.0,96,0.00,,,-99.99,0.000000,,2013-01-01 09:51:00,
2013-01-01 04:12:00,64.0,63.0,-100.00,South,169,7.0,12.0,96,0.00,,,-99.99,0.000000,,2013-01-01 10:12:00,
2013-01-01 04:22:00,64.0,63.0,-100.00,South,169,7.0,12.0,96,0.00,,,-99.99,0.000000,,2013-01-01 10:22:00,
2013-01-01 04:33:00,64.0,63.0,-100.00,South,169,7.0,12.0,96,0.00,,,-99.99,0.000000,,2013-01-01 10:33:00,
2013-01-01 04:42:00,64.0,63.0,-100.00,South,169,7.0,12.0,96,0.00,,,-99.99,0.000000,,2013-01-01 10:42:00,
2013-01-01 04:51:00,65.0,62.0,-100.00,South,181,6.0,15.0,91,0.00,,,-99.99,0.000000,,2013-01-01 10:51:00,
2013-01-01 05:12:00,65.0,62.0,-100.00,South,181,6.0,15.0,91,0.00,,,-99.99,0.000000,,2013-01-01 11:12:00,
2013-01-01 05:22:00,65.0,62.0,-100.00,South,181,6.0,15.0,91,0.00,,,-99.99,0.000000,,2013-01-01 11:22:00,
2013-01-01 05:33:00,65.0,62.0,-100.00,South,181,6.0,15.0,91,0.00,,,-99.99,0.000000,,2013-01-01 11:33:00,
2013-01-01 05:42:00,65.0,62.0,-100.00,South,181,6.0,15.0,91,0.00,,,-99.99,0.000000,,2013-01-01 11:42:00,
2013-01-01 05:51:00,65.0,62.0,-100.00,South,178,5.0,14.0,91,0.00,,,-99.99,0.000000,,2013-01-01 11:51:00,
2013-01-01 06:12:00,65.0,62.0,-100.00,South,178,5.0,14.0,91,0.00,,,-99.99,0.000000,,2013-01-01 12:12:00,
2013-01-01 06:22:00,65.0,62.0,-100.00,South,178,5.0,14.0,91,0.00,,,-99.99,0.000000,,2013-01-01 12:22:00,
2013-01-01 06:33:00,65.0,62.0,-100.00,South,178,5.0,14.0,91,0.00,,,-99.99,0.000000,,2013-01-01 12:33:00,
2013-01-01 06:42:00,65.0,62.0,-100.00,South,178,5.0,14.0,91,0.00,,,-99.99,0.000000,,2013-01-01 12:42:00,
2013-01-01 06:51:00,65.0,62.0,-100.00,South,179,5.0,11.0,91,0.00,,,-99.99,0.000000,,2013-01-01 12:51:00,
2013-01-01 07:12:00,65.0,62.0,-100.00,South,179,5.0,11.0,91,0.00,,,-99.99,0.000000,,2013-01-01 13:12:00,
2013-01-01 07:22:00,65.0,62.0,-100.00,South,179,5.0,11.0,91,0.00,,,-99.99,0.000000,,2013-01-01 13:22:00,
2013-01-01 07:33:00,65.0,62.0,-100.00,South,179,5.0,11.0,91,0.00,,,-99.99,0.000000,,2013-01-01 13:33:00,
2013-01-01 07:42:00,65.0,62.0,-100.00,South,179,5.0,11.0,91,0.00,,,-99.99,0.000000,,2013-01-01 13:42:00,
2013-01-01 07:51:00,67.0,63.0,-100.00,South,180,6.0,13.0,86,0.00,,,-99.99,41.000000,,2013-01-01 13:51:00,
2013-01-01 08:12:00,67.0,63.0,-100.00,South,180,6.0,13.0,86,0.00,,,-99.99,41.000000,,2013-01-01 14:12:00,
2013-01-01 08:22:00,67.0,63.0,-100.00,South,180,6.0,13.0,86,0.00,,,-99.99,41.000000,,2013-01-01 14:22:00,
2013-01-01 08:32:00,67.0,63.0,-100.00,South,180,6.0,13.0,86,0.00,,,-99.99,41.000000,,2013-01-01 14:32:00,
2013-01-01 08:42:00,67.0,63.0,-100.00,South,180,6.0,13.0,86,0.00,,,-99.99,41.000000,,2013-01-01 14:42:00,
2013-01-01 08:51:00,71.0,65.0,-100.00,South,178,7.0,17.0,80,0.00,,,-99.99,177.000000,,2013-01-01 14:51:00,
2013-01-01 09:12:00,71.0,65.0,-100.00,South,178,7.0,17.0,80,0.00,,,-99.99,177.000000,,2013-01-01 15:12:00,
2013-01-01 09:22:00,71.0,65.0,-100.00,South,178,7.0,17.0,80,0.00,,,-99.99,177.000000,,2013-01-01 15:22:00,
2013-01-01 09:33:00,71.0,65.0,-100.00,South,178,7.0,17.0,80,0.00,,,-99.99,177.000000,,2013-01-01 15:33:00,
2013-01-01 09:42:00,71.0,65.0,-100.00,South,178,7.0,17.0,80,0.00,,,-99.99,177.000000,,2013-01-01 15:42:00,
2013-01-01 09:51:00,72.0,65.0,-100.00,South,176,11.0,20.0,78,0.00,,,-99.99,283.000000,,2013-01-01 15:51:00,
2013-01-01 10:12:00,72.0,65.0,-100.00,South,176,11.0,20.0,78,0.00,,,-99.99,283.000000,,2013-01-01 16:12:00,
2013-01-01 10:22:00,72.0,65.0,-100.00,South,176,11.0,20.0,78,0.00,,,-99.99,283.000000,,2013-01-01 16:22:00,
2013-01-01 10:33:00,72.0,65.0,-100.00,South,176,11.0,20.0,78,0.00,,,-99.99,283.000000,,2013-01-01 16:33:00,
2013-01-01 10:42:00,72.0,65.0,-100.00,South,176,11.0,20.0,78,0.00,,,-99.99,283.000000,,2013-01-01 16:42:00,
2013-01-01 10:51:00,73.0,65.0,-100.00,South,183,10.0,21.0,75,0.00,,,-99.99,380.000000,,2013-01-01 16:51:00,
2013-01-01 11:22:00,73.0,65.0,-100.00,South,183,10.0,21.0,75,0.00,,,-99.99,380.000000,,2013-01-01 17:22:00,
2013-01-01 11:33:00,73.0,65.0,-100.00,South,183,10.0,21.0,75,0.00,,,-99.99,380.000000,,2013-01-01 17:33:00,
2013-01-01 11:43:00,73.0,65.0,-100.00,South,183,10.0,21.0,75,0.00,,,-99.99,380.000000,,2013-01-01 17:43:00,
2013-01-01 11:51:00,75.0,66.0,-100.00,South,180,8.0,18.0,74,0.00,,,-99.99,433.000000,,2013-01-01 17:51:00,
2013-01-01 12:12:00,75.0,66.0,-100.00,South,180,8.0,18.0,74,0.00,,,-99.99,433.000000,,2013-01-01 18:12:00,
2013-01-01 12:22:00,75.0,66.0,-100.00,South,180,8.0,18.0,74,0.00,,,-99.99,433.000000,,2013-01-01 18:22:00,
2013-01-01 12:33:00,75.0,66.0,-100.00,South,180,8.0,18.0,74,0.00,,,-99.99,433.000000,,2013-01-01 18:33:00,
2013-01-01 12:42:00,75.0,66.0,-100.00,South,180,8.0,18.0,74,0.00,,,-99.99,433.000000,,2013-01-01 18:42:00,
2013-01-01 12:51:00,75.0,65.0,-100.00,SSW,194,7.0,21.0,72,0.00,,,-99.99,483.000000,,2013-01-01 18:51:00,
2013-01-01 13:22:00,75.0,65.0,-100.00,SSW,194,7.0,21.0,72,0.00,,,-99.99,483.000000,,2013-01-01 19:22:00,
2013-01-01 13:33:00,75.0,65.0,-100.00,SSW,194,7.0,21.0,72,0.00,,,-99.99,483.000000,,2013-01-01 19:33:00,
2013-01-01 13:42:00,75.0,65.0,-100.00,SSW,194,7.0,21.0,72,0.00,,,-99.99,483.000000,,2013-01-01 19:42:00,
2013-01-01 13:51:00,73.0,65.0,-100.00,SSW,204,6.0,17.0,75,0.00,,,-99.99,282.000000,,2013-01-01 19:51:00,
2013-01-01 14:23:00,73.0,65.0,-100.00,SSW,204,6.0,17.0,75,0.00,,,-99.99,282.000000,,2013-01-01 20:23:00,
2013-01-01 14:32:00,73.0,65.0,-100.00,SSW,204,6.0,17.0,75,0.00,,,-99.99,282.000000,,2013-01-01 20:32:00,
2013-01-01 14:42:00,73.0,65.0,-100.00,SSW,204,6.0,17.0,75,0.00,,,-99.99,282.000000,,2013-01-01 20:42:00,
2013-01-01 14:51:00,72.0,65.0,-100.00,SSW,199,4.0,13.0,80,0.00,,,-99.99,144.000000,,2013-01-01 20:51:00,
2013-01-01 15:12:00,72.0,65.0,-100.00,SSW,199,4.0,13.0,80,0.00,,,-99.99,144.000000,,2013-01-01 21:12:00,
2013-01-01 15:22:00,72.0,65.0,-100.00,SSW,199,4.0,13.0,80,0.00,,,-99.99,144.000000,,2013-01-01 21:22:00,
2013-01-01 15:33:00,72.0,65.0,-100.00,SSW,199,4.0,13.0,80,0.00,,,-99.99,144.000000,,2013-01-01 21:33:00,
2013-01-01 15:42:00,72.0,65.0,-100.00,SSW,199,4.0,13.0,80,0.00,,,-99.99,144.000000,,2013-01-01 21:42:00,
2013-01-01 15:51:00,70.0,65.0,-100.00,SSW,200,5.0,11.0,84,0.00,,,-99.99,82.000000,,2013-01-01 21:51:00,
2013-01-01 16:12:00,70.0,65.0,-100.00,SSW,200,5.0,11.0,84,0.00,,,-99.99,82.000000,,2013-01-01 22:12:00,
2013-01-01 16:22:00,70.0,65.0,-100.00,SSW,200,5.0,11.0,84,0.00,,,-99.99,82.000000,,2013-01-01 22:22:00,
2013-01-01 16:33:00,70.0,65.0,-100.00,SSW,200,5.0,11.0,84,0.00,,,-99.99,82.000000,,2013-01-01 22:33:00,
2013-01-01 16:42:00,70.0,65.0,-100.00,SSW,200,5.0,11.0,84,0.00,,,-99.99,82.000000,,2013-01-01 22:42:00,
2013-01-01 16:51:00,68.0,64.0,-100.00,South,191,4.0,11.0,88,0.00,,,-99.99,43.000000,,2013-01-01 22:51:00,
2013-01-01 17:12:00,68.0,64.0,-100.00,South,191,4.0,11.0,88,0.00,,,-99.99,43.000000,,2013-01-01 23:12:00,
2013-01-01 17:22:00,68.0,64.0,-100.00,South,191,4.0,11.0,88,0.00,,,-99.99,43.000000,,2013-01-01 23:22:00,
2013-01-01 17:32:00,68.0,64.0,-100.00,South,191,4.0,11.0,88,0.00,,,-99.99,43.000000,,2013-01-01 23:32:00,
2013-01-01 17:42:00,68.0,64.0,-100.00,South,191,4.0,11.0,88,0.00,,,-99.99,43.000000,,2013-01-01 23:42:00,
2013-01-01 17:51:00,68.0,65.0,-100.00,South,188,4.0,9.0,89,0.00,,,-99.99,1.000000,,2013-01-01 23:51:00,
2013-01-01 18:12:00,68.0,65.0,-100.00,South,188,4.0,9.0,89,0.00,,,-99.99,1.000000,,2013-01-02 00:12:00,
2013-01-01 18:22:00,68.0,65.0,-100.00,South,188,4.0,9.0,89,0.00,,,-99.99,1.000000,,2013-01-02 00:22:00,
2013-01-01 18:32:00,68.0,65.0,-100.00,South,188,4.0,9.0,89,0.00,,,-99.99,1.000000,,2013-01-02 00:32:00,
2013-01-01 18:42:00,68.0,65.0,-100.00,South,188,4.0,9.0,89,0.00,,,-99.99,1.000000,,2013-01-02 00:42:00,
2013-01-01 18:51:00,67.0,64.0,-100.00,SW,215,4.0,10.0,90,0.00,,,0.00,0.000000,,2013-01-02 00:51:00,
2013-01-01 19:12:00,67.0,64.0,-100.00,SW,215,4.0,10.0,90,0.00,,,0.00,0.000000,,2013-01-02 01:12:00,
2013-01-01 19:22:00,67.0,64.0,-100.00,SW,215,4.0,10.0,90,0.00,,,0.00,0.000000,,2013-01-02 01:22:00,
2013-01-01 19:32:00,67.0,64.0,-100.00,SW,215,4.0,10.0,90,0.00,,,0.00,0.000000,,2013-01-02 01:32:00,
2013-01-01 19:42:00,67.0,64.0,-100.00,SW,215,4.0,10.0,90,0.00,,,0.00,0.000000,,2013-01-02 01:42:00,
2013-01-01 19:51:00,65.0,64.0,-100.00,SW,217,1.0,10.0,95,0.03,,,0.03,0.000000,,2013-01-02 01:51:00,
2013-01-01 20:12:00,65.0,64.0,-100.00,SW,217,1.0,10.0,95,0.03,,,0.03,0.000000,,2013-01-02 02:12:00,
2013-01-01 20:22:00,65.0,64.0,-100.00,SW,217,1.0,10.0,95,0.03,,,0.03,0.000000,,2013-01-02 02:22:00,
2013-01-01 20:32:00,65.0,64.0,-100.00,SW,217,1.0,10.0,95,0.03,,,0.03,0.000000,,2013-01-02 02:32:00,
2013-01-01 20:42:00,65.0,64.0,-100.00,SW,217,1.0,10.0,95,0.03,,,0.03,0.000000,,2013-01-02 02:42:00,
2013-01-01 20:51:00,61.0,60.0,-100.00,North,355,6.0,17.0,95,0.01,,,0.04,0.000000,,2013-01-02 02:51:00,
2013-01-01 21:12:00,61.0,60.0,-100.00,North,355,6.0,17.0,95,0.01,,,0.04,0.000000,,2013-01-02 03:12:00,
2013-01-01 21:22:00,61.0,60.0,-100.00,North,355,6.0,17.0,95,0.01,,,0.04,0.000000,,2013-01-02 03:22:00,
2013-01-01 21:32:00,61.0,60.0,-100.00,North,355,6.0,17.0,95,0.01,,,0.04,0.000000,,2013-01-02 03:32:00,
2013-01-01 21:42:00,61.0,60.0,-100.00,North,355,6.0,17.0,95,0.01,,,0.04,0.000000,,2013-01-02 03:42:00,
2013-01-01 21:51:00,57.0,55.0,-100.00,North,359,5.0,14.0,94,0.00,,,0.04,0.000000,,2013-01-02 03:51:00,
2013-01-01 22:12:00,57.0,55.0,-100.00,North,359,5.0,14.0,94,0.00,,,0.04,0.000000,,2013-01-02 04:12:00,
2013-01-01 22:22:00,57.0,55.0,-100.00,North,359,5.0,14.0,94,0.00,,,0.04,0.000000,,2013-01-02 04:22:00,
2013-01-01 22:32:00,57.0,55.0,-100.00,North,359,5.0,14.0,94,0.00,,,0.04,0.000000,,2013-01-02 04:32:00,
2013-01-01 22:42:00,57.0,55.0,-100.00,North,359,5.0,14.0,94,0.00,,,0.04,0.000000,,2013-01-02 04:42:00,
2013-01-01 22:51:00,56.0,54.0,-100.00,NNE,13,5.0,16.0,92,0.00,,,0.04,0.000000,,2013-01-02 04:51:00,
2013-01-01 23:12:00,56.0,54.0,-100.00,NNE,13,5.0,16.0,92,0.00,,,0.04,0.000000,,2013-01-02 05:12:00,
2013-01-01 23:22:00,56.0,54.0,-100.00,NNE,13,5.0,16.0,92,0.00,,,0.04,0.000000,,2013-01-02 05:22:00,
2013-01-01 23:33:00,56.0,54.0,-100.00,NNE,13,5.0,16.0,92,0.00,,,0.04,0.000000,,2013-01-02 05:33:00,
2013-01-01 23:42:00,56.0,54.0,-100.00,NNE,13,5.0,16.0,92,0.00,,,0.04,0.000000,,2013-01-02 05:42:00,
2013-01-01 23:51:00,56.0,53.0,-100.00,NNE,17,5.0,12.0,91,0.00,,,0.04,0.000000,,2013-01-02 05:51:00,